createdAt,value
2022-08-19T00:01:59.634Z,101409.75
2022-08-19T00:04:33.929Z,101410.13
2022-08-19T00:07:01.183Z,101404.28
2022-08-19T00:09:28.609Z,101399.97
2022-08-19T00:11:56.493Z,101408.56
2022-08-19T00:14:24.925Z,101403.06
2022-08-19T00:16:55.195Z,101403.78
2022-08-19T00:19:23.333Z,101405.41
2022-08-19T00:21:49.998Z,101410.13
2022-08-19T00:24:17.004Z,101411.75
2022-08-19T00:26:44.684Z,101414.44
2022-08-19T00:29:13.285Z,101406.91
2022-08-19T00:31:41.466Z,101405.34
2022-08-19T00:34:08.030Z,101405.34
2022-08-19T00:36:34.567Z,101402.66
2022-08-19T00:39:01.855Z,101406.97
2022-08-19T00:41:28.415Z,101397.97
2022-08-19T00:44:12.157Z,101404.16
2022-08-19T00:46:41.443Z,101405.25
2022-08-19T00:49:15.540Z,101405.94
2022-08-19T00:51:43.626Z,101413.78
2022-08-19T00:54:10.544Z,101412.63
2022-08-19T00:56:37.807Z,101412.63
2022-08-19T00:59:10.019Z,101409.88
2022-08-19T01:01:41.655Z,101405.47
2022-08-19T01:04:08.833Z,101401.94
2022-08-19T01:06:38.229Z,101401.97
2022-08-19T01:09:06.271Z,101397.94
2022-08-19T01:11:36.395Z,101400.63
2022-08-19T01:14:03.889Z,101398.25
2022-08-19T01:16:31.348Z,101403.00
2022-08-19T01:18:57.849Z,101406.53
2022-08-19T01:21:44.823Z,101408.03
2022-08-19T01:24:11.379Z,101411.88
2022-08-19T01:26:43.890Z,101409.84
2022-08-19T01:29:11.489Z,101407.47
2022-08-19T01:31:40.260Z,101418.88
2022-08-19T01:34:08.236Z,101418.84
2022-08-19T01:36:42.902Z,101418.00
2022-08-19T01:39:12.992Z,101408.63
2022-08-19T01:41:39.999Z,101419.59
2022-08-19T01:44:17.610Z,101402.41
2022-08-19T01:46:48.094Z,101403.59
2022-08-19T01:49:15.942Z,101401.19
2022-08-19T01:51:42.517Z,101402.25
2022-08-19T01:54:10.973Z,101407.63
2022-08-19T01:56:39.549Z,101417.41
2022-08-19T01:59:11.322Z,101416.72
2022-08-19T02:01:37.983Z,101411.59
2022-08-19T02:04:06.033Z,101416.31
2022-08-19T02:06:33.915Z,101408.50
2022-08-19T02:09:01.220Z,101406.13
2022-08-19T02:11:34.376Z,101412.28
2022-08-19T02:14:07.105Z,101413.41
2022-08-19T02:16:34.011Z,101415.03
2022-08-19T02:19:03.329Z,101412.59
2022-08-19T02:21:30.982Z,101414.06
2022-08-19T02:23:58.030Z,101417.13
2022-08-19T02:26:24.893Z,101418.28
2022-08-19T02:28:51.386Z,101422.25
2022-08-19T02:31:20.277Z,101423.88
2022-08-19T02:33:47.762Z,101427.78
2022-08-19T02:36:16.831Z,101429.22
2022-08-19T02:38:47.658Z,101430.03
2022-08-19T02:41:26.792Z,101423.38
2022-08-19T02:44:22.884Z,101428.88
2022-08-19T02:46:47.931Z,101423.44
2022-08-19T02:49:17.414Z,101419.66
2022-08-19T02:51:46.450Z,101417.69
2022-08-19T02:54:14.434Z,101435.13
2022-08-19T02:56:43.478Z,101434.41
2022-08-19T02:59:11.264Z,101435.19
2022-08-19T03:01:41.560Z,101433.66
2022-08-19T03:04:10.343Z,101432.00
2022-08-19T03:06:43.881Z,101426.75
2022-08-19T03:09:11.559Z,101431.31
2022-08-19T03:11:38.552Z,101431.75
2022-08-19T03:14:07.084Z,101428.72
2022-08-19T03:16:41.985Z,101425.31
2022-08-19T03:19:08.652Z,101416.72
2022-08-19T03:21:35.678Z,101408.22
2022-08-19T03:24:06.471Z,101413.47
2022-08-19T03:26:33.335Z,101413.19
2022-08-19T03:29:05.501Z,101409.72
2022-08-19T03:31:45.549Z,101426.50
2022-08-19T03:34:28.351Z,101414.97
2022-08-19T03:36:57.113Z,101410.53
2022-08-19T03:39:25.175Z,101410.66
2022-08-19T03:42:32.927Z,101421.72
2022-08-19T03:44:45.528Z,101424.16
2022-08-19T03:47:16.850Z,101426.09
2022-08-19T03:49:43.356Z,101411.94
2022-08-19T03:52:09.900Z,101415.34
2022-08-19T03:54:39.292Z,101418.09
2022-08-19T03:57:06.369Z,101423.94
2022-08-19T03:59:36.240Z,101425.84
2022-08-19T04:02:09.631Z,101429.25
2022-08-19T04:04:38.011Z,101421.28
2022-08-19T04:07:04.514Z,101414.22
2022-08-19T04:09:31.031Z,101405.22
2022-08-19T04:11:58.692Z,101402.38
2022-08-19T04:14:29.816Z,101401.97
2022-08-19T04:16:56.753Z,101396.88
2022-08-19T04:19:24.263Z,101407.88
2022-08-19T04:21:53.867Z,101404.72
2022-08-19T04:24:21.482Z,101401.56
2022-08-19T04:26:49.284Z,101400.28
2022-08-19T04:29:26.145Z,101398.63
2022-08-19T04:31:54.803Z,101394.75
2022-08-19T04:34:23.578Z,101404.59
2022-08-19T04:36:54.316Z,101401.00
2022-08-19T04:39:45.639Z,101415.09
2022-08-19T04:42:31.700Z,101407.56
2022-08-19T04:44:59.574Z,101397.09
2022-08-19T04:47:49.149Z,101396.69
2022-08-19T04:50:13.399Z,101400.63
2022-08-19T04:52:43.784Z,101393.81
2022-08-19T04:55:12.211Z,101398.25
2022-08-19T04:57:41.129Z,101394.53
2022-08-19T05:00:09.508Z,101399.25
2022-08-19T05:02:36.095Z,101408.25
2022-08-19T05:05:04.038Z,101407.88
2022-08-19T05:07:30.501Z,101407.88
2022-08-19T05:09:58.940Z,101410.63
2022-08-19T05:12:28.874Z,101411.41
2022-08-19T05:14:57.812Z,101410.19
2022-08-19T05:17:30.997Z,101425.84
2022-08-19T05:20:18.891Z,101425.75
2022-08-19T05:22:47.311Z,101426.03
2022-08-19T05:25:19.322Z,101427.69
2022-08-19T05:27:45.835Z,101427.00
2022-08-19T05:30:12.730Z,101438.75
2022-08-19T05:32:40.433Z,101428.66
2022-08-19T05:35:07.453Z,101439.69
2022-08-19T05:37:34.035Z,101444.47
2022-08-19T05:40:00.813Z,101462.75
2022-08-19T05:42:27.471Z,101442.44
2022-08-19T05:44:54.558Z,101446.06
2022-08-19T05:47:21.439Z,101439.53
2022-08-19T05:49:50.674Z,101438.47
2022-08-19T05:52:19.034Z,101433.78
2022-08-19T05:54:48.643Z,101435.41
2022-08-19T05:57:19.622Z,101433.19
2022-08-19T05:59:49.121Z,101427.78
2022-08-19T06:02:15.758Z,101429.84
2022-08-19T06:04:45.226Z,101427.09
2022-08-19T06:07:12.699Z,101435.72
2022-08-19T06:09:40.370Z,101436.97
2022-08-19T06:12:07.513Z,101429.28
2022-08-19T06:14:40.231Z,101438.31
2022-08-19T06:17:09.121Z,101439.69
2022-08-19T06:19:40.521Z,101435.44
2022-08-19T06:22:08.238Z,101435.88
2022-08-19T06:24:34.823Z,101441.84
2022-08-19T06:27:02.012Z,101432.88
2022-08-19T06:29:30.850Z,101434.13
2022-08-19T06:31:59.351Z,101436.13
2022-08-19T06:34:28.859Z,101436.56
2022-08-19T06:36:57.175Z,101432.69
2022-08-19T06:39:30.483Z,101438.19
2022-08-19T06:42:00.663Z,101444.84
2022-08-19T06:44:30.453Z,101444.41
2022-08-19T06:46:58.578Z,101440.44
2022-08-19T06:49:27.121Z,101444.03
2022-08-19T06:51:54.547Z,101449.50
2022-08-19T06:54:21.263Z,101450.66
2022-08-19T06:56:48.076Z,101441.66
2022-08-19T06:59:18.675Z,101455.78
2022-08-19T07:01:47.987Z,101453.00
2022-08-19T07:04:20.572Z,101446.75
2022-08-19T07:06:55.147Z,101458.56
2022-08-19T07:09:22.276Z,101457.03
2022-08-19T07:11:50.976Z,101451.97
2022-08-19T07:14:20.328Z,101459.91
2022-08-19T07:16:49.857Z,101452.44
2022-08-19T07:19:19.036Z,101447.81
2022-08-19T07:21:50.513Z,101446.63
2022-08-19T07:24:18.254Z,101456.06
2022-08-19T07:26:45.207Z,101453.31
2022-08-19T07:29:13.640Z,101458.44
2022-08-19T07:31:40.743Z,101452.94
2022-08-19T07:34:14.538Z,101450.63
2022-08-19T07:36:43.919Z,101449.84
2022-08-19T07:39:14.664Z,101443.59
2022-08-19T07:41:41.842Z,101457.75
2022-08-19T07:44:09.877Z,101462.84
2022-08-19T07:46:39.138Z,101462.03
2022-08-19T07:49:08.117Z,101460.91
2022-08-19T07:51:37.023Z,101458.56
2022-08-19T07:54:04.383Z,101462.09
2022-08-19T07:56:31.046Z,101464.06
2022-08-19T07:58:57.531Z,101464.13
2022-08-19T08:01:27.363Z,101465.72
2022-08-19T08:04:14.286Z,101470.06
2022-08-19T08:06:59.781Z,101472.41
2022-08-19T08:09:31.059Z,101478.72
2022-08-19T08:12:02.103Z,101481.84
2022-08-19T08:14:36.233Z,101479.88
2022-08-19T08:17:10.791Z,101484.59
2022-08-19T08:19:38.819Z,101487.00
2022-08-19T08:22:07.236Z,101482.25
2022-08-19T08:24:34.587Z,101490.13
2022-08-19T08:27:01.943Z,101501.16
2022-08-19T08:29:34.596Z,101505.47
2022-08-19T08:32:02.741Z,101507.44
2022-08-19T08:34:29.354Z,101512.56
2022-08-19T08:36:55.922Z,101515.69
2022-08-19T08:39:22.696Z,101512.53
2022-08-19T08:42:19.852Z,101517.28
2022-08-19T08:44:46.876Z,101522.38
2022-08-19T08:47:21.015Z,101520.81
2022-08-19T08:49:56.765Z,101523.94
2022-08-19T08:52:36.502Z,101522.78
2022-08-19T08:55:10.742Z,101513.75
2022-08-19T08:57:48.132Z,101506.25
2022-08-19T09:00:43.570Z,101512.53
2022-08-19T09:03:23.191Z,101520.81
2022-08-19T09:06:03.859Z,101513.28
2022-08-19T09:08:41.287Z,101519.53
2022-08-19T09:11:19.234Z,101522.22
2022-08-19T09:14:33.842Z,101511.88
2022-08-19T09:17:04.319Z,101506.97
2022-08-19T09:19:31.500Z,101508.09
2022-08-19T09:22:01.455Z,101513.91
2022-08-19T09:24:31.085Z,101512.69
2022-08-19T09:26:57.883Z,101510.31
2022-08-19T09:29:24.361Z,101505.34
2022-08-19T09:31:51.049Z,101514.03
2022-08-19T09:34:21.670Z,101503.81
2022-08-19T09:36:53.363Z,101514.25
2022-08-19T09:39:20.248Z,101513.41
2022-08-19T09:41:48.991Z,101520.50
2022-08-19T09:44:16.149Z,101514.84
2022-08-19T09:46:43.231Z,101516.00
2022-08-19T09:49:09.818Z,101516.94
2022-08-19T09:51:36.380Z,101523.72
2022-08-19T09:54:05.163Z,101525.38
2022-08-19T09:56:34.113Z,101518.28
2022-08-19T09:59:02.174Z,101524.88
2022-08-19T10:01:31.107Z,101517.00
2022-08-19T10:03:59.451Z,101525.38
2022-08-19T10:06:45.654Z,101531.81
2022-08-19T10:09:13.398Z,101526.78
2022-08-19T10:11:52.698Z,101532.31
2022-08-19T10:14:23.497Z,101529.53
2022-08-19T10:16:50.411Z,101528.75
2022-08-19T10:19:25.754Z,101525.16
2022-08-19T10:21:54.187Z,101528.22
2022-08-19T10:24:25.173Z,101524.84
2022-08-19T10:26:57.227Z,101525.19
2022-08-19T10:29:32.643Z,101529.97
2022-08-19T10:32:02.914Z,101518.53
2022-08-19T10:34:31.507Z,101519.56
2022-08-19T10:37:00.481Z,101519.38
2022-08-19T10:39:32.952Z,101517.31
2022-08-19T10:42:14.265Z,101512.28
2022-08-19T10:44:42.326Z,101518.22
2022-08-19T10:47:17.604Z,101508.31
2022-08-19T10:50:11.983Z,101503.88
2022-08-19T10:52:50.122Z,101510.09
2022-08-19T10:55:40.261Z,101502.84
2022-08-19T10:58:15.124Z,101513.47
2022-08-19T11:00:43.953Z,101511.25
2022-08-19T11:03:11.158Z,101499.78
2022-08-19T11:05:40.349Z,101504.09
2022-08-19T11:08:23.813Z,101510.25
2022-08-19T11:10:54.683Z,101506.59
2022-08-19T11:13:21.404Z,101504.47
2022-08-19T11:15:48.426Z,101499.06
2022-08-19T11:18:14.943Z,101504.59
2022-08-19T11:20:41.430Z,101502.25
2022-08-19T11:23:08.018Z,101503.47
2022-08-19T11:25:35.475Z,101494.94
2022-08-19T11:28:01.974Z,101497.69
2022-08-19T11:30:28.873Z,101502.06
2022-08-19T11:32:55.361Z,101496.38
2022-08-19T11:35:22.111Z,101498.09
2022-08-19T11:37:48.729Z,101489.47
2022-08-19T11:40:15.360Z,101490.94
2022-08-19T11:42:57.123Z,101486.25
2022-08-19T11:45:25.654Z,101480.38
2022-08-19T11:47:52.474Z,101483.03
2022-08-19T11:50:20.026Z,101478.06
2022-08-19T11:52:46.898Z,101481.06
2022-08-19T11:55:14.923Z,101472.03
2022-08-19T11:57:42.192Z,101467.13
2022-08-19T12:00:10.485Z,101474.75
2022-08-19T12:02:37.320Z,101477.53
2022-08-19T12:05:05.452Z,101479.75
2022-08-19T12:07:35.328Z,101478.25
2022-08-19T12:10:01.877Z,101479.16
2022-08-19T12:12:30.251Z,101482.94
2022-08-19T12:14:59.130Z,101486.50
2022-08-19T12:17:27.362Z,101481.91
2022-08-19T12:19:54.721Z,101482.19
2022-08-19T12:22:22.304Z,101475.84
2022-08-19T12:24:51.648Z,101478.03
2022-08-19T12:27:29.043Z,101467.22
2022-08-19T12:30:03.857Z,101473.41
2022-08-19T12:32:30.593Z,101473.19
2022-08-19T12:34:57.154Z,101471.97
2022-08-19T12:37:23.902Z,101472.97
2022-08-19T12:39:50.461Z,101470.63
2022-08-19T12:42:18.870Z,101468.19
2022-08-19T12:44:45.915Z,101469.75
2022-08-19T12:47:14.708Z,101462.72
2022-08-19T12:49:53.818Z,101475.13
2022-08-19T12:52:26.184Z,101477.41
2022-08-19T12:54:54.560Z,101466.72
2022-08-19T12:57:21.649Z,101463.78
2022-08-19T12:59:54.574Z,101464.63
2022-08-19T13:02:21.174Z,101461.41
2022-08-19T13:04:47.907Z,101460.44
2022-08-19T13:07:14.581Z,101462.72
2022-08-19T13:09:43.507Z,101468.06
2022-08-19T13:12:13.852Z,101463.06
2022-08-19T13:14:41.340Z,101471.03
2022-08-19T13:17:09.266Z,101461.16
2022-08-19T13:19:37.972Z,101463.84
2022-08-19T13:22:04.520Z,101464.44
2022-08-19T13:24:42.854Z,101466.75
2022-08-19T13:27:11.715Z,101459.03
2022-08-19T13:29:56.539Z,101460.78
2022-08-19T13:32:41.348Z,101459.22
2022-08-19T13:35:09.128Z,101459.34
2022-08-19T13:37:45.019Z,101455.53
2022-08-19T13:40:20.025Z,101448.53
2022-08-19T13:42:49.511Z,101439.94
2022-08-19T13:45:19.034Z,101454.56
2022-08-19T13:47:47.903Z,101453.41
2022-08-19T13:50:18.526Z,101455.91
2022-08-19T13:52:45.199Z,101455.25
2022-08-19T13:55:12.874Z,101463.34
2022-08-19T13:57:40.072Z,101485.31
2022-08-19T14:00:13.882Z,101489.09
2022-08-19T14:02:41.264Z,101492.81
2022-08-19T14:05:10.739Z,101494.03
2022-08-19T14:07:37.318Z,101492.09
2022-08-19T14:10:07.712Z,101491.69
2022-08-19T14:12:34.562Z,101496.03
2022-08-19T14:15:01.522Z,101492.47
2022-08-19T14:17:28.677Z,101497.59
2022-08-19T14:20:10.975Z,101492.09
2022-08-19T14:22:40.821Z,101492.47
2022-08-19T14:25:10.771Z,101489.34
2022-08-19T14:27:38.887Z,101488.56
2022-08-19T14:30:07.865Z,101491.28
2022-08-19T14:32:35.494Z,101490.50
2022-08-19T14:35:02.919Z,101487.38
2022-08-19T14:37:29.522Z,101486.59
2022-08-19T14:39:56.355Z,101487.78
2022-08-19T14:42:22.883Z,101478.31
2022-08-19T14:44:49.438Z,101480.28
2022-08-19T14:47:15.905Z,101477.16
2022-08-19T14:49:46.854Z,101478.72
2022-08-19T14:52:14.999Z,101478.31
2022-08-19T14:54:41.527Z,101467.69
2022-08-19T14:57:08.156Z,101468.88
2022-08-19T14:59:36.197Z,101475.97
2022-08-19T15:02:20.184Z,101478.34
2022-08-19T15:04:58.470Z,101475.97
2022-08-19T15:07:29.185Z,101463.75
2022-08-19T15:09:56.419Z,101466.91
2022-08-19T15:12:23.514Z,101461.41
2022-08-19T15:14:51.877Z,101461.78
2022-08-19T15:17:25.809Z,101466.88
2022-08-19T15:20:11.072Z,101465.69
2022-08-19T15:22:38.100Z,101471.19
2022-08-19T15:25:07.779Z,101471.13
2022-08-19T15:27:35.190Z,101475.44
2022-08-19T15:30:01.896Z,101473.81
2022-08-19T15:32:29.156Z,101476.88
2022-08-19T15:34:55.839Z,101458.72
2022-08-19T15:37:23.982Z,101465.06
2022-08-19T15:39:51.147Z,101466.66
2022-08-19T15:42:30.125Z,101468.63
2022-08-19T15:45:00.660Z,101472.94
2022-08-19T15:47:34.731Z,101475.28
2022-08-19T15:50:10.549Z,101486.31
2022-08-19T15:52:49.629Z,101479.66
2022-08-19T15:55:33.736Z,101484.44
2022-08-19T15:58:28.563Z,101483.63
2022-08-19T16:01:29.939Z,101478.13
2022-08-19T16:04:19.322Z,101475.31
2022-08-19T16:06:51.592Z,101475.72
2022-08-19T16:09:25.076Z,101483.19
2022-08-19T16:11:56.957Z,101482.00
2022-08-19T16:14:25.186Z,101480.41
2022-08-19T16:16:52.213Z,101470.50
2022-08-19T16:19:19.933Z,101470.50
2022-08-19T16:21:50.180Z,101470.13
2022-08-19T16:24:22.407Z,101479.19
2022-08-19T16:26:49.690Z,101472.91
2022-08-19T16:29:30.235Z,101479.19
2022-08-19T16:32:05.309Z,101484.31
2022-08-19T16:34:32.274Z,101482.38
2022-08-19T16:37:00.169Z,101485.50
2022-08-19T16:39:26.929Z,101484.28
2022-08-19T16:41:53.757Z,101481.50
2022-08-19T16:44:21.026Z,101475.22
2022-08-19T16:46:57.288Z,101475.97
2022-08-19T16:49:52.990Z,101479.09
2022-08-19T16:52:14.856Z,101479.91
2022-08-19T16:54:43.649Z,101489.78
2022-08-19T16:57:11.791Z,101479.59
2022-08-19T16:59:42.622Z,101487.47
2022-08-19T17:02:16.720Z,101475.66
2022-08-19T17:04:43.184Z,101484.28
2022-08-19T17:07:10.341Z,101472.78
2022-08-19T17:09:38.054Z,101473.13
2022-08-19T17:12:05.486Z,101469.56
2022-08-19T17:14:31.981Z,101466.03
2022-08-19T17:16:58.470Z,101469.16
2022-08-19T17:19:24.998Z,101474.31
2022-08-19T17:21:51.807Z,101475.88
2022-08-19T17:24:18.364Z,101479.03
2022-08-19T17:26:44.886Z,101475.50
2022-08-19T17:29:11.466Z,101472.34
2022-08-19T17:31:38.189Z,101481.44
2022-08-19T17:34:05.731Z,101468.09
2022-08-19T17:36:35.946Z,101477.59
2022-08-19T17:39:05.477Z,101474.47
2022-08-19T17:41:34.190Z,101479.59
2022-08-19T17:44:01.742Z,101475.28
2022-08-19T17:46:30.111Z,101482.03
2022-08-19T17:48:57.816Z,101475.31
2022-08-19T17:51:46.809Z,101480.44
2022-08-19T17:54:19.285Z,101475.75
2022-08-19T17:56:46.511Z,101482.47
2022-08-19T17:59:14.507Z,101475.38
2022-08-19T18:01:53.332Z,101486.03
2022-08-19T18:04:25.417Z,101485.63
2022-08-19T18:06:54.367Z,101485.25
2022-08-19T18:09:24.476Z,101499.84
2022-08-19T18:11:53.245Z,101501.81
2022-08-19T18:14:25.094Z,101498.66
2022-08-19T18:16:57.977Z,101495.91
2022-08-19T18:19:25.977Z,101500.63
2022-08-19T18:21:58.021Z,101496.28
2022-08-19T18:24:24.617Z,101504.56
2022-08-19T18:26:51.430Z,101514.03
2022-08-19T18:29:18.426Z,101511.28
2022-08-19T18:31:45.020Z,101513.25
2022-08-19T18:34:11.546Z,101519.56
2022-08-19T18:36:53.591Z,101517.59
2022-08-19T18:39:38.852Z,101523.50
2022-08-19T18:42:24.144Z,101531.00
2022-08-19T18:45:08.991Z,101530.59
2022-08-19T18:47:54.379Z,101522.72
2022-08-19T18:50:20.987Z,101528.63
2022-08-19T18:52:47.562Z,101533.34
2022-08-19T18:55:15.729Z,101545.56
2022-08-19T18:57:42.173Z,101546.34
2022-08-19T19:00:09.916Z,101545.56
2022-08-19T19:02:41.195Z,101545.97
2022-08-19T19:05:08.049Z,101544.78
2022-08-19T19:07:35.374Z,101551.88
2022-08-19T19:10:02.215Z,101555.41
2022-08-19T19:12:29.350Z,101561.34
2022-08-19T19:14:57.959Z,101570.00
2022-08-19T19:17:28.347Z,101571.59
2022-08-19T19:19:55.029Z,101565.66
2022-08-19T19:22:22.585Z,101566.44
2022-08-19T19:24:49.509Z,101573.56
2022-08-19T19:27:18.538Z,101570.38
2022-08-19T19:29:48.483Z,101568.41
2022-08-19T19:32:24.618Z,101577.50
2022-08-19T19:34:51.164Z,101582.63
2022-08-19T19:37:17.989Z,101578.28
2022-08-19T19:39:46.004Z,101580.28
2022-08-19T19:42:20.209Z,101575.16
2022-08-19T19:44:52.126Z,101579.88
2022-08-19T19:47:19.574Z,101583.81
2022-08-19T19:52:38.730Z,101571.22
2022-08-19T19:55:05.715Z,101575.16
2022-08-19T19:57:32.318Z,101573.16
2022-08-19T19:59:59.407Z,101572.78
2022-08-19T20:02:27.545Z,101574.75
2022-08-19T20:04:56.305Z,101578.66
2022-08-19T20:07:42.823Z,101581.06
2022-08-19T20:10:09.401Z,101589.69
2022-08-19T20:12:35.893Z,101594.81
2022-08-19T20:15:03.327Z,101596.00
2022-08-19T20:17:29.911Z,101594.41
2022-08-19T20:19:57.444Z,101596.00
2022-08-19T20:22:25.874Z,101594.41
2022-08-19T20:24:53.770Z,101599.13
2022-08-19T20:27:21.594Z,101594.81
2022-08-19T20:29:52.361Z,101598.75
2022-08-19T20:32:18.854Z,101599.13
2022-08-19T20:34:49.230Z,101596.38
2022-08-19T20:37:15.885Z,101596.00
2022-08-19T20:39:42.729Z,101599.13
2022-08-19T20:42:09.330Z,101594.81
2022-08-19T20:44:37.017Z,101599.13
2022-08-19T20:47:04.213Z,101595.97
2022-08-19T20:49:31.126Z,101593.22
2022-08-19T20:51:58.316Z,101598.72
2022-08-19T20:54:25.281Z,101605.03
2022-08-19T20:56:51.887Z,101607.38
2022-08-19T20:59:20.034Z,101604.22
2022-08-19T21:01:47.373Z,101599.53
2022-08-19T21:04:14.342Z,101595.97
2022-08-19T21:06:42.199Z,101599.50
2022-08-19T21:09:11.972Z,101590.06
2022-08-19T21:11:38.797Z,101586.13
2022-08-19T21:14:05.761Z,101581.38
2022-08-19T21:16:33.769Z,101588.88
2022-08-19T21:19:00.921Z,101581.41
2022-08-19T21:21:28.039Z,101586.91
2022-08-19T21:23:54.781Z,101587.69
2022-08-19T21:26:21.381Z,101593.59
2022-08-19T21:28:47.882Z,101584.94
2022-08-19T21:31:15.784Z,101579.84
2022-08-19T21:33:42.372Z,101579.03
2022-08-19T21:36:09.487Z,101580.22
2022-08-19T21:38:36.223Z,101582.59
2022-08-19T21:41:06.192Z,101585.72
2022-08-19T21:43:34.793Z,101583.38
2022-08-19T21:46:01.746Z,101592.81
2022-08-19T21:48:28.444Z,101588.06
2022-08-19T21:50:54.954Z,101581.00
2022-08-19T21:53:22.937Z,101587.69
2022-08-19T21:55:53.552Z,101579.78
2022-08-19T21:58:30.074Z,101584.53
2022-08-19T22:00:58.727Z,101599.88
2022-08-19T22:03:25.866Z,101594.75
2022-08-19T22:05:52.648Z,101597.91
2022-08-19T22:08:19.379Z,101601.03
2022-08-19T22:10:46.639Z,101595.94
2022-08-19T22:13:13.432Z,101598.31
2022-08-19T22:15:42.235Z,101591.22
2022-08-19T22:18:08.699Z,101589.66
2022-08-19T22:20:35.198Z,101593.97
2022-08-19T22:23:06.569Z,101579.44
2022-08-19T22:25:36.692Z,101587.69
2022-08-19T22:28:06.625Z,101594.00
2022-08-19T22:30:38.838Z,101601.47
2022-08-19T22:33:12.453Z,101601.03
2022-08-19T22:35:41.186Z,101604.19
2022-08-19T22:38:09.182Z,101608.50
2022-08-19T22:40:39.518Z,101604.56
2022-08-19T22:43:21.942Z,101610.47
2022-08-19T22:45:50.859Z,101606.13
2022-08-19T22:48:19.619Z,101601.03
2022-08-19T22:51:07.865Z,101608.13
2022-08-19T22:53:36.945Z,101605.38
2022-08-19T22:56:05.182Z,101604.19
2022-08-19T22:58:32.073Z,101610.47
2022-08-19T23:00:59.745Z,101610.47
2022-08-19T23:03:26.983Z,101602.22
2022-08-19T23:05:53.781Z,101599.88
2022-08-19T23:08:20.259Z,101608.50
2022-08-19T23:10:49.639Z,101603.41
2022-08-19T23:13:17.422Z,101611.28
2022-08-19T23:15:45.905Z,101614.03
2022-08-19T23:18:13.210Z,101608.13
2022-08-19T23:20:42.150Z,101607.34
2022-08-19T23:23:12.074Z,101610.47
2022-08-19T23:25:39.098Z,101607.72
2022-08-19T23:28:24.725Z,101611.66
2022-08-19T23:30:52.852Z,101611.28
2022-08-19T23:33:51.397Z,101614.03
2022-08-19T23:36:17.826Z,101604.56
2022-08-19T23:38:46.408Z,101605.41
2022-08-19T23:41:14.714Z,101613.59
2022-08-19T23:43:42.972Z,101602.59
2022-08-19T23:46:11.950Z,101609.31
2022-08-19T23:48:39.797Z,101601.03
2022-08-19T23:51:09.564Z,101603.78
2022-08-19T23:53:38.572Z,101602.63
2022-08-19T23:56:07.382Z,101600.25
2022-08-19T23:58:34.912Z,101600.25
